หน้าหลัก
METAR-TAF:

METAR-TAF

ท่าอากาศยาน :

RAF

Holbeach, อังกฤษ

ละติจูด: 52-52N, ลองจิจูด: 000-09E, ความสูง: 3 ม.

การสังเกตสภาพอากาศปัจจุบัน

รายงานได้ทำขึ้นเมื่อ 32 นาทีที่แล้ว ณ เวลา 00:20 UTC
ลม 10 นอตจากเหนือ/ตะวันออกเฉียงเหนือ
อุณหภูมิ 11°C
ความชื้น 94%
ความกดอากาศ 1019 hPa
ทัศนวิสัย 10 กม. หรือมากกว่า

METAR: EGYH 190020Z AUTO 03010KT 9999 FEW009/// SCT016/// 11/10 Q1019

เวลา: 01:52 (00:52 UTC)


TAF: หายไป

สังเกตการณ์สภาพอากาศและพยากรณ์อากาศของสนามบินมากกว่า 4000 แห่ง (รายงาน METAR และ TAF).

สถานีที่ดูได้จะแสดงไว้ด้วยจุดสีเหลืองและสีแดงบนแผนที่.

เลื่อนเมาส์ไปเหนือจุดเพื่อดูชื่อสถานี.

แล้วคลิกเพื่อดูสังเกตการณ์และการพยากรณ์สภาพอากาศ.

ในการเปลี่ยนแผนที่: คลิกที่ปุ่มสีเขียวที่มีกากบาทสีดำเพื่อซูมเข้า; ที่ปุ่มสีเขียวที่มีขีดเพื่อซูมออก; หรือที่ลูกศรสีเขียวเพื่อไปยังแผนที่ที่อยู่ติดกัน.


METAR-TAF: